Time;durP1;ratioP1;P1;durP2;ratioP2;P2;SDS_P1;SDS_P2;PMS_P1;PMS_P2;Temp;Humidity;BMP_temperature;BMP_pressure;BME280_temperature;BME280_humidity;BME280_pressure;Samples;Min_cycle;Max_cycle;Signal;HPM_P1;HPM_P2
2021/05/27 00:02:26;;;;;;;11.57;5.85;;;;;;;10.33;87.78;100117.94;5056312;28;20106;-70
2021/05/27 00:04:53;;;;;;;12.18;5.90;;;;;;;10.30;88.03;100119.94;5056410;28;20048;-70
2021/05/27 00:07:19;;;;;;;12.65;7.40;;;;;;;10.32;88.03;100123.38;5057508;28;20053;-70
2021/05/27 00:09:46;;;;;;;10.38;6.38;;;;;;;10.30;88.11;100120.78;5057309;28;20053;-70
2021/05/27 00:12:13;;;;;;;9.43;6.32;;;;;;;10.38;87.67;100123.00;5057394;28;20385;-70
2021/05/27 00:14:40;;;;;;;7.90;6.13;;;;;;;10.35;87.71;100122.31;5057093;28;20442;-70
2021/05/27 00:17:07;;;;;;;9.75;6.15;;;;;;;10.31;88.16;100122.50;5056933;28;20426;-69
2021/05/27 00:19:33;;;;;;;12.13;6.15;;;;;;;10.37;88.37;100126.63;5040117;28;20438;-70
2021/05/27 00:22:01;;;;;;;9.82;6.05;;;;;;;10.35;87.90;100120.50;5036223;28;20418;-68
2021/05/27 00:24:29;;;;;;;12.35;5.28;;;;;;;10.39;87.81;100124.72;5037016;28;20075;-70
2021/05/27 00:26:56;;;;;;;10.27;6.45;;;;;;;10.33;88.42;100133.94;5035932;28;20489;-69
2021/05/27 00:29:23;;;;;;;15.30;5.47;;;;;;;10.39;87.82;100131.84;5037098;28;20072;-69
2021/05/27 00:31:50;;;;;;;10.90;6.38;;;;;;;10.38;88.06;100133.66;5037010;28;20050;-69
2021/05/27 00:34:18;;;;;;;11.73;5.90;;;;;;;10.34;88.01;100132.13;5036986;28;20370;-69
2021/05/27 00:36:45;;;;;;;8.43;6.15;;;;;;;10.41;87.90;100128.13;5036784;28;20103;-70
2021/05/27 00:39:11;;;;;;;14.27;6.75;;;;;;;10.42;87.74;100124.53;5036593;28;20052;-70
2021/05/27 00:41:38;;;;;;;12.15;6.00;;;;;;;10.41;87.78;100128.13;5035399;28;20049;-70
2021/05/27 00:44:23;;;;;;;9.82;5.90;;;;;;;10.37;87.27;100134.63;5036583;28;20072;-70
2021/05/27 00:46:51;;;;;;;10.75;5.65;;;;;;;10.37;87.24;100131.09;5036482;28;20050;-70
2021/05/27 00:49:18;;;;;;;11.57;6.00;;;;;;;10.32;87.14;100129.56;5036547;28;20450;-70
2021/05/27 00:51:46;;;;;;;14.15;6.93;;;;;;;10.36;87.44;100140.03;5036499;28;20053;-69
2021/05/27 00:54:13;;;;;;;11.35;6.25;;;;;;;10.33;87.78;100131.28;5035075;28;20439;-70
2021/05/27 00:56:41;;;;;;;16.92;7.30;;;;;;;10.33;86.84;100133.94;5036481;28;20053;-70
2021/05/27 00:59:08;;;;;;;13.15;6.38;;;;;;;10.27;87.64;100141.44;5036616;28;20077;-69
2021/05/27 01:01:36;;;;;;;10.30;7.05;;;;;;;10.34;87.59;100148.13;5036226;28;20054;-69
2021/05/27 01:04:03;;;;;;;13.60;7.05;;;;;;;10.35;87.09;100149.00;5036478;28;20046;-69
2021/05/27 01:06:29;;;;;;;14.07;7.00;;;;;;;10.34;87.32;100148.13;5036205;28;20390;-69
2021/05/27 01:08:56;;;;;;;12.95;7.78;;;;;;;10.29;88.00;100139.53;5036342;28;20045;-69
2021/05/27 01:11:24;;;;;;;12.32;6.75;;;;;;;10.28;87.77;100145.84;5035082;28;20096;-69
2021/05/27 01:13:51;;;;;;;14.98;7.32;;;;;;;10.27;88.08;100144.13;5036074;28;20119;-69
2021/05/27 01:16:21;;;;;;;15.73;7.78;;;;;;;10.27;88.08;100149.44;5036163;28;20045;-69
2021/05/27 01:18:48;;;;;;;13.48;7.93;;;;;;;10.24;88.36;100146.97;5046746;28;20126;-69
2021/05/27 01:21:18;;;;;;;21.52;8.57;;;;;;;10.39;87.37;100147.84;5056091;28;20064;-69
2021/05/27 01:23:45;;;;;;;16.30;8.10;;;;;;;10.29;87.82;100153.75;5055796;28;20052;-69
2021/05/27 01:26:12;;;;;;;14.93;7.72;;;;;;;10.32;88.15;100153.59;5056006;28;20281;-69
2021/05/27 01:28:41;;;;;;;12.23;6.85;;;;;;;10.13;88.56;100147.63;5056017;28;20051;-69
2021/05/27 01:31:10;;;;;;;14.57;7.45;;;;;;;10.17;88.65;100147.34;5055915;28;20422;-69
2021/05/27 01:33:38;;;;;;;17.13;8.10;;;;;;;10.24;88.18;100153.16;5055992;28;20073;-70
2021/05/27 01:36:05;;;;;;;14.35;7.25;;;;;;;10.27;88.22;100157.47;5054761;28;20045;-70
2021/05/27 01:38:32;;;;;;;12.00;7.85;;;;;;;10.33;88.14;100154.44;5055562;28;20048;-70
2021/05/27 01:41:03;;;;;;;13.80;7.50;;;;;;;10.31;88.48;100165.19;5055716;28;20049;-70
2021/05/27 01:43:30;;;;;;;13.75;7.97;;;;;;;10.37;87.28;100163.97;5055658;28;20429;-70
2021/05/27 01:45:57;;;;;;;10.30;7.88;;;;;;;10.33;88.00;100149.09;5055288;28;20422;-70
2021/05/27 01:48:24;;;;;;;14.63;7.88;;;;;;;10.28;87.50;100156.50;5055372;28;20438;-70
2021/05/27 01:50:51;;;;;;;15.60;7.22;;;;;;;10.36;87.19;100166.72;5055500;28;20107;-69
2021/05/27 01:53:18;;;;;;;16.85;8.32;;;;;;;10.26;87.33;100161.94;5055159;28;20057;-69
2021/05/27 01:55:49;;;;;;;11.80;8.63;;;;;;;10.27;88.02;100162.78;5054120;28;20118;-70
2021/05/27 01:58:17;;;;;;;15.93;8.93;;;;;;;10.21;88.11;100160.50;5055440;28;20049;-70
2021/05/27 02:00:44;;;;;;;14.38;8.65;;;;;;;10.18;87.51;100161.53;5055181;28;20048;-70
2021/05/27 02:03:11;;;;;;;14.27;8.60;;;;;;;10.18;87.95;100164.19;5055328;28;20061;-70
2021/05/27 02:05:38;;;;;;;13.27;8.73;;;;;;;10.12;88.23;100164.56;5055391;28;20323;-70
2021/05/27 02:08:05;;;;;;;15.35;8.82;;;;;;;10.19;88.27;100168.59;5054087;28;20405;-70
2021/05/27 02:10:32;;;;;;;14.43;9.40;;;;;;;10.17;88.07;100163.34;5055397;28;20052;-69
2021/05/27 02:12:59;;;;;;;14.52;9.05;;;;;;;10.15;87.79;100157.22;5055358;28;20056;-70
2021/05/27 02:15:25;;;;;;;12.52;8.48;;;;;;;10.14;87.84;100163.50;5054280;28;20102;-70
2021/05/27 02:17:52;;;;;;;13.07;8.65;;;;;;;10.17;87.18;100163.34;5052369;28;20050;-70
2021/05/27 02:20:19;;;;;;;13.73;8.80;;;;;;;10.19;87.40;100168.59;5035075;28;20050;-69
2021/05/27 02:22:46;;;;;;;10.43;8.45;;;;;;;10.17;87.82;100163.34;5035286;28;20079;-70
2021/05/27 02:25:13;;;;;;;17.65;8.95;;;;;;;10.22;87.10;100170.19;5034016;28;20092;-70
2021/05/27 02:27:40;;;;;;;13.10;8.48;;;;;;;10.13;87.48;100159.13;5035018;28;20045;-69
2021/05/27 02:30:07;;;;;;;13.77;8.48;;;;;;;10.17;87.64;100171.34;5034927;28;20108;-70
2021/05/27 02:32:34;;;;;;;17.05;9.43;;;;;;;10.13;87.60;100172.47;5034807;28;20064;-70
2021/05/27 02:35:01;;;;;;;14.48;9.98;;;;;;;10.09;88.29;100173.63;5033932;28;20439;-70
2021/05/27 02:37:27;;;;;;;14.38;9.32;;;;;;;10.15;88.07;100178.56;5035025;28;20067;-69
2021/05/27 02:39:54;;;;;;;13.98;10.15;;;;;;;10.15;87.94;100175.06;5034835;28;20049;-69
2021/05/27 02:42:20;;;;;;;16.92;10.90;;;;;;;10.19;87.96;100174.78;5033824;28;20055;-70
2021/05/27 02:44:47;;;;;;;19.15;11.85;;;;;;;10.13;87.94;100174.31;5034789;28;20410;-70
2021/05/27 02:47:15;;;;;;;17.13;11.05;;;;;;;10.18;87.80;100175.72;5034874;28;20705;-70
2021/05/27 02:49:42;;;;;;;18.15;12.30;;;;;;;10.15;87.62;100180.38;5034097;28;20049;-69
2021/05/27 02:52:08;;;;;;;17.98;11.55;;;;;;;10.07;88.25;100180.84;5033985;28;20099;-69
2021/05/27 02:54:35;;;;;;;18.02;11.57;;;;;;;10.16;87.73;100172.31;5034620;28;20065;-70
2021/05/27 02:57:02;;;;;;;17.23;12.77;;;;;;;10.08;87.96;100177.22;5034958;28;20111;-70
2021/05/27 02:59:28;;;;;;;16.83;12.32;;;;;;;10.05;87.92;100169.41;5033604;28;20107;-72
2021/05/27 03:01:55;;;;;;;16.08;11.73;;;;;;;9.98;88.20;100168.88;5034411;28;20350;-69
2021/05/27 03:04:24;;;;;;;17.42;12.00;;;;;;;9.96;88.69;100176.13;5034631;28;20057;-69
2021/05/27 03:06:50;;;;;;;18.30;11.40;;;;;;;10.07;88.14;100175.50;5038644;28;20111;-70
2021/05/27 03:09:17;;;;;;;23.05;12.48;;;;;;;10.07;87.97;100183.50;5038584;28;20504;-70
2021/05/27 03:11:44;;;;;;;15.98;10.98;;;;;;;10.10;88.30;100172.66;5038656;28;20053;-71
2021/05/27 03:14:10;;;;;;;13.98;10.88;;;;;;;10.09;88.42;100181.63;5038382;28;20513;-72
2021/05/27 03:16:37;;;;;;;16.00;11.32;;;;;;;10.04;88.46;100181.03;5037436;28;20049;-70
2021/05/27 03:19:04;;;;;;;16.83;11.35;;;;;;;10.11;88.33;100190.38;5050786;28;20101;-69
2021/05/27 03:21:32;;;;;;;15.23;10.77;;;;;;;10.00;88.15;100152.81;5058273;28;20064;-72
2021/05/27 03:23:58;;;;;;;13.32;10.80;;;;;;;10.04;88.69;100183.69;5040624;28;20091;-70
2021/05/27 03:26:25;;;;;;;14.73;11.35;;;;;;;10.10;88.05;100183.34;5056912;28;20095;-70
2021/05/27 03:28:52;;;;;;;17.75;11.43;;;;;;;10.05;88.50;100177.41;5057932;28;20483;-71
2021/05/27 03:31:19;;;;;;;11.98;10.75;;;;;;;10.00;88.91;100182.13;5056933;28;20045;-68
2021/05/27 03:33:45;;;;;;;18.83;11.40;;;;;;;10.04;88.23;100179.19;5058407;28;20068;-71
2021/05/27 03:36:12;;;;;;;13.20;11.48;;;;;;;10.04;88.36;100189.88;5058439;28;20052;-71
2021/05/27 03:38:39;;;;;;;19.52;11.20;;;;;;;10.09;88.62;100197.63;5056798;28;20057;-68
2021/05/27 03:41:05;;;;;;;14.77;10.82;;;;;;;9.98;89.32;100186.72;5057056;28;20103;-73
2021/05/27 03:43:32;;;;;;;15.48;10.60;;;;;;;9.97;88.88;100182.34;5057952;28;20426;-71
2021/05/27 03:46:00;;;;;;;15.60;11.07;;;;;;;10.03;88.62;100177.50;5057748;28;20049;-71
2021/05/27 03:48:26;;;;;;;15.20;11.60;;;;;;;10.09;88.69;100192.28;5057408;28;20048;-69
2021/05/27 03:50:53;;;;;;;14.02;11.23;;;;;;;10.08;88.46;100190.53;5058018;28;20056;-69
2021/05/27 03:53:20;;;;;;;15.45;11.35;;;;;;;10.05;88.50;100190.75;5056523;28;20056;-70
2021/05/27 03:55:47;;;;;;;16.25;12.27;;;;;;;10.09;88.71;100199.41;5056387;28;20091;-69
2021/05/27 04:01:18;;;;;;;15.77;11.20;;;;;;;10.10;88.70;100188.66;5035440;28;20049;-68
2021/05/27 04:09:15;;;;;;;14.43;12.15;;;;;;;10.07;89.03;100199.50;5057302;28;20045;-70
2021/05/27 04:11:42;;;;;;;17.30;11.82;;;;;;;10.07;88.85;100204.00;5039763;28;20453;-69
2021/05/27 04:14:09;;;;;;;15.73;12.07;;;;;;;10.02;89.07;100207.78;5057096;28;20430;-70
2021/05/27 04:16:35;;;;;;;19.92;12.52;;;;;;;10.08;89.00;100206.53;5055340;28;20049;-70
2021/05/27 04:19:03;;;;;;;28.20;14.23;;;;;;;10.13;89.17;100206.31;5044604;28;20072;-69
2021/05/27 04:21:30;;;;;;;22.38;13.18;;;;;;;10.06;88.83;100195.13;5037058;28;20053;-71
2021/05/27 04:23:56;;;;;;;17.10;13.55;;;;;;;10.06;88.53;100211.13;5036923;28;20049;-70
2021/05/27 04:26:23;;;;;;;19.73;14.20;;;;;;;10.06;89.29;100208.44;5037268;28;20049;-71
2021/05/27 04:28:50;;;;;;;15.20;12.88;;;;;;;10.11;88.63;100211.72;5037054;28;20091;-71
2021/05/27 04:31:18;;;;;;;19.35;14.27;;;;;;;10.03;88.18;100203.31;5046597;28;20102;-71
2021/05/27 04:33:45;;;;;;;19.50;13.57;;;;;;;10.05;88.71;100210.28;5055687;28;20076;-70
2021/05/27 04:36:16;;;;;;;20.52;14.00;;;;;;;10.01;88.87;100208.72;5056966;28;20060;-71
2021/05/27 04:38:44;;;;;;;19.88;14.70;;;;;;;10.05;88.90;100214.75;5056692;28;20087;-71
2021/05/27 04:41:11;;;;;;;19.08;13.40;;;;;;;10.11;88.82;100213.50;5057028;28;20496;-70
2021/05/27 04:43:39;;;;;;;21.17;14.38;;;;;;;10.05;88.80;100220.94;5055806;28;20506;-70
2021/05/27 04:46:10;;;;;;;21.25;14.07;;;;;;;10.04;88.67;100207.69;5047651;28;20423;-71
2021/05/27 04:48:37;;;;;;;24.27;14.77;;;;;;;10.17;88.28;100216.69;5036633;28;20046;-77
2021/05/27 04:51:05;;;;;;;21.85;13.90;;;;;;;10.18;88.55;100218.41;5036497;28;20504;-70
2021/05/27 04:53:31;;;;;;;24.95;14.40;;;;;;;10.15;88.21;100221.25;5035702;28;20107;-70
2021/05/27 04:55:59;;;;;;;21.08;14.95;;;;;;;10.14;88.61;100227.53;5035123;28;20139;-70
2021/05/27 04:58:26;;;;;;;23.83;15.63;;;;;;;10.17;88.86;100229.16;5035676;28;20046;-71
2021/05/27 05:00:53;;;;;;;23.98;15.32;;;;;;;10.15;88.33;100223.06;5035712;28;20115;-71
2021/05/27 05:03:20;;;;;;;22.67;15.02;;;;;;;10.16;88.78;100222.97;5036105;28;20115;-71
2021/05/27 05:05:47;;;;;;;23.92;15.93;;;;;;;10.21;88.84;100236.03;5035672;28;20092;-71
2021/05/27 05:08:13;;;;;;;23.15;14.48;;;;;;;10.17;88.05;100237.16;5037759;28;20045;-71
2021/05/27 05:10:44;;;;;;;;;;;;;;;10.14;88.66;100240.84;5037629;28;20426;-69
2021/05/27 05:13:11;;;;;;;21.13;14.23;;;;;;;10.18;88.71;100241.53;5040207;28;19975;-69
2021/05/27 05:15:39;;;;;;;19.65;14.40;;;;;;;10.25;88.41;100252.72;5038866;28;20083;-70
2021/05/27 05:18:08;;;;;;;22.23;14.90;;;;;;;10.23;88.51;100246.63;5045235;28;20049;-69
2021/05/27 05:20:41;;;;;;;22.33;14.07;;;;;;;10.29;88.80;100246.25;5048092;28;20438;-70
2021/05/27 05:23:08;;;;;;;20.10;14.02;;;;;;;10.30;88.25;100250.66;5048179;28;20053;-70
2021/05/27 05:25:37;;;;;;;22.88;14.88;;;;;;;10.25;88.11;100239.41;5037162;28;20053;-69
2021/05/27 05:28:04;;;;;;;19.08;13.55;;;;;;;10.27;87.41;100249.03;5043346;28;20434;-70
2021/05/27 05:30:32;;;;;;;19.33;13.75;;;;;;;10.33;87.59;100251.34;5045401;28;20052;-69
2021/05/27 05:32:59;;;;;;;19.40;14.13;;;;;;;10.19;88.17;100235.28;5043840;28;20053;-70
2021/05/27 05:35:30;;;;;;;19.73;13.68;;;;;;;10.20;88.14;100253.00;5046174;28;20055;-69
2021/05/27 05:37:59;;;;;;;18.58;12.45;;;;;;;10.31;88.34;100245.22;5050506;28;20049;-72
2021/05/27 05:40:28;;;;;;;17.80;12.40;;;;;;;10.36;86.99;100252.09;5054421;28;20056;-69
2021/05/27 05:42:56;;;;;;;19.65;14.15;;;;;;;10.16;88.21;100246.13;5055524;28;20131;-70
2021/05/27 05:45:24;;;;;;;19.02;13.88;;;;;;;10.29;87.98;100256.91;5055677;28;20130;-70
2021/05/27 05:47:56;;;;;;;24.20;14.48;;;;;;;10.20;88.14;100255.66;5055417;28;20124;-70
2021/05/27 05:53:11;;;;;;;21.00;14.68;;;;;;;10.17;89.07;100259.38;5035311;28;20049;-72
2021/05/27 05:55:38;;;;;;;23.25;14.93;;;;;;;10.21;89.38;100253.84;5042348;28;20098;-72
2021/05/27 05:58:05;;;;;;;25.30;14.98;;;;;;;10.16;88.86;100263.00;5043783;28;20406;-71
2021/05/27 06:00:32;;;;;;;21.70;15.68;;;;;;;10.10;89.50;100263.34;5046591;28;20049;-71
2021/05/27 06:02:59;;;;;;;22.70;15.82;;;;;;;10.10;89.52;100257.13;5044625;28;20103;-71
2021/05/27 06:05:26;;;;;;;23.05;16.10;;;;;;;10.14;90.02;100270.19;5042518;28;20057;-70
2021/05/27 06:07:55;;;;;;;23.38;16.08;;;;;;;10.03;90.61;100252.16;5043004;28;20048;-71
2021/05/27 06:10:23;;;;;;;26.23;16.63;;;;;;;10.00;90.62;100259.47;5044167;28;20445;-71
2021/05/27 06:12:57;;;;;;;24.17;16.80;;;;;;;9.96;90.87;100260.59;5044206;28;20078;-70
2021/05/27 06:15:26;;;;;;;20.13;15.23;;;;;;;9.87;91.56;100262.81;5042710;28;20042;-69
2021/05/27 06:17:56;;;;;;;23.52;15.95;;;;;;;9.87;92.25;100276.16;5043521;28;20057;-72
2021/05/27 06:20:24;;;;;;;20.52;15.60;;;;;;;9.78;91.36;100268.69;5042659;28;20053;-70
2021/05/27 06:22:51;;;;;;;31.35;15.18;;;;;;;9.73;92.84;100262.75;5045379;28;20107;-70
2021/05/27 06:25:21;;;;;;;23.50;14.85;;;;;;;9.67;93.79;100249.75;5043175;28;20060;-72
2021/05/27 06:27:48;;;;;;;20.13;14.38;;;;;;;9.83;92.94;100271.97;5044607;28;20072;-73
2021/05/27 06:30:15;;;;;;;26.70;16.10;;;;;;;9.83;93.54;100269.28;5044246;28;20045;-71
2021/05/27 06:32:42;;;;;;;21.65;15.73;;;;;;;9.85;93.91;100275.38;5046160;28;20099;-69
2021/05/27 06:35:12;;;;;;;21.88;15.07;;;;;;;9.82;94.52;100264.91;5048151;28;20058;-69
2021/05/27 06:37:41;;;;;;;23.13;15.40;;;;;;;9.86;93.73;100276.25;5044156;28;20097;-73
2021/05/27 06:40:10;;;;;;;23.77;15.83;;;;;;;9.95;94.07;100272.19;5047005;28;20098;-70
2021/05/27 06:42:38;;;;;;;25.77;15.93;;;;;;;9.97;94.07;100283.66;5048184;28;20076;-71
2021/05/27 06:45:06;;;;;;;21.17;15.23;;;;;;;10.10;92.99;100284.69;5047028;28;20057;-70
2021/05/27 06:47:33;;;;;;;24.23;15.35;;;;;;;10.09;93.02;100282.97;5049031;28;20049;-72
2021/05/27 06:50:00;;;;;;;22.98;14.52;;;;;;;10.13;92.73;100287.16;5046247;28;20041;-72
2021/05/27 06:52:27;;;;;;;20.63;14.00;;;;;;;10.19;92.19;100286.81;5044880;28;20048;-73
2021/05/27 06:54:54;;;;;;;20.67;14.95;;;;;;;10.19;92.36;100286.81;5049037;28;20049;-71
2021/05/27 06:57:21;;;;;;;27.50;15.85;;;;;;;10.21;92.59;100296.53;5042863;28;20107;-70
2021/05/27 06:59:48;;;;;;;22.55;16.30;;;;;;;10.21;91.33;100297.41;5046351;28;20073;-69
2021/05/27 07:02:17;;;;;;;25.48;14.88;;;;;;;10.11;91.17;100291.72;5048495;28;20102;-74
2021/05/27 07:04:45;;;;;;;20.08;15.13;;;;;;;10.07;91.02;100287.50;5047507;28;20056;-73
2021/05/27 07:07:13;;;;;;;23.80;14.63;;;;;;;10.13;91.58;100287.16;5048550;28;20060;-74
2021/05/27 07:09:40;;;;;;;20.02;14.07;;;;;;;10.16;90.99;100289.66;5029395;28;20037;-71
2021/05/27 07:12:09;;;;;;;20.42;13.75;;;;;;;10.14;90.23;100298.69;5043735;28;20137;-73
2021/05/27 07:14:36;;;;;;;20.60;13.02;;;;;;;10.21;89.81;100301.84;5048883;28;20041;-70
2021/05/27 07:17:04;;;;;;;20.73;13.32;;;;;;;10.12;90.14;100288.09;5046090;28;20049;-71
2021/05/27 07:19:34;;;;;;;22.10;12.88;;;;;;;10.29;89.80;100305.81;5046385;28;20044;-73
2021/05/27 07:22:01;;;;;;;26.83;13.38;;;;;;;10.24;89.00;100312.38;5031216;28;20442;-73
2021/05/27 07:24:28;;;;;;;24.52;14.02;;;;;;;10.09;90.09;100285.63;5028767;28;20080;-70
2021/05/27 07:26:55;;;;;;;20.35;12.93;;;;;;;10.28;89.31;100311.22;5046135;28;20068;-73
2021/05/27 07:29:22;;;;;;;15.25;12.63;;;;;;;10.31;90.89;100311.06;5030529;28;20056;-71
2021/05/27 07:31:50;;;;;;;20.85;12.25;;;;;;;10.25;90.46;100300.75;5043825;28;20053;-72
2021/05/27 07:34:24;;;;;;;22.05;13.25;;;;;;;10.04;89.62;100274.34;5046440;28;20354;-72
2021/05/27 07:36:52;;;;;;;17.52;12.32;;;;;;;10.33;90.27;100311.81;5044684;28;20500;-71
2021/05/27 07:39:19;;;;;;;18.83;12.65;;;;;;;10.27;90.16;100315.72;5047372;28;20442;-72
2021/05/27 07:41:48;;;;;;;20.65;13.05;;;;;;;10.21;91.23;100304.53;5048149;28;20064;-69
2021/05/27 07:44:14;;;;;;;20.55;13.23;;;;;;;10.04;91.07;100274.34;5046815;28;20053;-71
2021/05/27 07:46:41;;;;;;;18.92;14.20;;;;;;;10.36;90.85;100329.47;5047152;28;20103;-73
2021/05/27 07:49:08;;;;;;;22.17;14.20;;;;;;;10.43;90.10;100328.19;5045487;28;20049;-71
2021/05/27 07:51:35;;;;;;;18.35;14.18;;;;;;;10.58;90.51;100321.13;5047812;28;20091;-71
2021/05/27 07:54:02;;;;;;;17.85;13.32;;;;;;;10.76;89.92;100332.50;5046247;28;20053;-72
2021/05/27 07:56:28;;;;;;;19.30;13.73;;;;;;;10.87;88.16;100313.19;5045825;28;20049;-71
2021/05/27 07:58:55;;;;;;;21.50;12.63;;;;;;;10.91;87.61;100324.53;5047889;28;20143;-72
2021/05/27 08:01:22;;;;;;;25.20;15.27;;;;;;;11.10;89.38;100326.94;5046905;28;20053;-72
2021/05/27 08:03:49;;;;;;;20.85;14.57;;;;;;;11.12;87.39;100323.25;5046119;28;20486;-73
2021/05/27 08:06:16;;;;;;;22.13;14.77;;;;;;;11.22;87.48;100318.19;5046315;28;20053;-71
2021/05/27 08:08:43;;;;;;;19.55;13.82;;;;;;;11.21;86.97;100319.16;5047300;28;20050;-72
2021/05/27 08:11:10;;;;;;;19.20;13.57;;;;;;;11.31;86.95;100342.63;5030729;28;20087;-73
2021/05/27 08:13:37;;;;;;;22.20;14.52;;;;;;;11.17;86.17;100338.13;5044961;28;20049;-73
2021/05/27 08:16:04;;;;;;;23.17;14.50;;;;;;;11.16;87.09;100339.09;5046220;28;20056;-70
2021/05/27 08:18:31;;;;;;;25.38;15.93;;;;;;;11.17;87.05;100338.97;5047089;28;20431;-72
2021/05/27 08:20:57;;;;;;;21.02;15.13;;;;;;;11.20;86.83;100344.16;5043805;28;20048;-72
2021/05/27 08:23:24;;;;;;;24.75;14.32;;;;;;;11.19;85.95;100347.78;5045836;28;20362;-71
2021/05/27 08:25:51;;;;;;;21.77;11.88;;;;;;;11.16;84.59;100349.78;5044476;28;20104;-73
2021/05/27 08:28:18;;;;;;;23.77;13.38;;;;;;;11.07;84.87;100356.53;5047055;28;20045;-72
2021/05/27 08:30:44;;;;;;;16.90;11.07;;;;;;;11.08;83.50;100355.56;5046626;28;20045;-72
2021/05/27 08:33:11;;;;;;;23.75;9.93;;;;;;;11.04;83.58;100365.59;5045172;28;20042;-71
2021/05/27 08:35:38;;;;;;;16.92;9.13;;;;;;;11.03;83.53;100365.66;5046921;28;20068;-70
2021/05/27 08:38:05;;;;;;;13.63;7.55;;;;;;;11.00;81.98;100361.38;5046641;28;20045;-72
2021/05/27 08:40:35;;;;;;;17.63;8.20;;;;;;;11.04;82.49;100370.06;5045400;28;20132;-70
2021/05/27 08:43:02;;;;;;;15.35;6.95;;;;;;;11.06;81.61;100379.69;5048106;28;20049;-73
2021/05/27 08:45:34;;;;;;;13.05;6.00;;;;;;;11.00;81.19;100348.88;5044068;28;20107;-73
2021/05/27 08:48:09;;;;;;;14.13;6.55;;;;;;;11.15;81.63;100375.63;5046435;28;20063;-73
2021/05/27 08:50:41;;;;;;;13.38;6.38;;;;;;;11.23;81.77;100380.50;5045501;28;20045;-73
2021/05/27 08:53:08;;;;;;;12.75;6.28;;;;;;;11.36;82.48;100385.97;5045432;28;20140;-69
2021/05/27 08:55:36;;;;;;;15.40;6.63;;;;;;;11.43;81.34;100378.44;5046776;28;20052;-71
2021/05/27 08:58:02;;;;;;;9.60;4.78;;;;;;;11.22;79.05;100379.63;5045970;28;20124;-70
2021/05/27 09:00:29;;;;;;;11.93;5.93;;;;;;;11.20;79.38;100370.00;5045376;28;20050;-70
2021/05/27 09:03:01;;;;;;;14.93;6.13;;;;;;;11.32;79.39;100381.78;5045679;28;20049;-71
2021/05/27 09:05:31;;;;;;;11.73;4.90;;;;;;;11.39;79.58;100393.81;5046827;28;20071;-69
2021/05/27 09:07:59;;;;;;;10.60;5.03;;;;;;;11.33;79.16;100386.16;5050280;28;20096;-72
2021/05/27 09:10:47;;;;;;;14.80;5.60;;;;;;;11.39;81.07;100391.13;5046921;28;20423;-68
2021/05/27 09:13:18;;;;;;;16.42;6.43;;;;;;;11.41;80.26;100405.25;5048796;28;20103;-70
2021/05/27 09:15:47;;;;;;;17.38;5.32;;;;;;;11.41;78.63;100406.13;5048764;28;20083;-70
2021/05/27 09:18:35;;;;;;;7.57;4.32;;;;;;;11.40;78.75;100395.53;5043526;28;20131;-72
2021/05/27 09:21:04;;;;;;;11.32;4.65;;;;;;;11.41;78.88;100410.59;5046698;28;20041;-70
2021/05/27 09:23:30;;;;;;;11.27;4.95;;;;;;;11.44;78.93;100410.41;5046135;28;20057;-72
2021/05/27 09:26:12;;;;;;;14.43;4.65;;;;;;;11.45;78.67;100414.81;5044223;28;20091;-73
2021/05/27 09:28:38;;;;;;;12.13;4.93;;;;;;;11.45;78.31;100413.94;5044612;28;20049;-69
2021/05/27 09:31:08;;;;;;;13.98;4.97;;;;;;;11.45;79.04;100409.47;5045632;28;20414;-71
2021/05/27 09:33:37;;;;;;;10.15;4.47;;;;;;;11.41;78.18;100410.59;5046089;28;20055;-72
2021/05/27 09:36:11;;;;;;;13.02;5.25;;;;;;;11.45;79.53;100422.84;5043996;28;20362;-72
2021/05/27 09:38:42;;;;;;;11.85;4.80;;;;;;;11.39;78.53;100418.72;5043978;28;20050;-68
2021/05/27 09:41:16;;;;;;;14.23;4.90;;;;;;;11.43;78.04;100407.84;5044966;28;20045;-72
2021/05/27 09:43:47;;;;;;;12.82;4.50;;;;;;;11.60;77.86;100415.69;5045987;28;20421;-72
2021/05/27 09:46:14;;;;;;;8.38;4.60;;;;;;;11.76;76.88;100420.09;5043649;28;20053;-72
2021/05/27 09:48:41;;;;;;;9.48;4.45;;;;;;;11.87;77.82;100422.94;5044065;28;20447;-71
2021/05/27 09:51:08;;;;;;;10.50;3.88;;;;;;;11.84;76.12;100412.44;5045252;28;20096;-72
2021/05/27 09:53:34;;;;;;;12.18;4.88;;;;;;;11.86;76.11;100415.88;5045752;28;20112;-72
2021/05/27 09:56:04;;;;;;;12.35;5.10;;;;;;;11.94;77.57;100420.75;5043799;28;20053;-73
2021/05/27 09:58:31;;;;;;;11.20;4.95;;;;;;;11.96;77.38;100418.84;5043634;28;20060;-72
2021/05/27 10:01:07;;;;;;;12.82;5.60;;;;;;;11.82;77.83;100433.06;5044961;28;20041;-72
2021/05/27 10:03:39;;;;;;;10.57;5.35;;;;;;;11.87;78.86;100432.81;5045453;28;20045;-71
2021/05/27 10:06:10;;;;;;;10.82;5.13;;;;;;;11.89;78.93;100434.44;5046172;28;20049;-73
2021/05/27 10:08:47;;;;;;;;;;;;;;;11.80;77.76;100432.31;5045887;28;20044;-69
2021/05/27 10:11:16;;;;;;;11.52;5.90;;;;;;;11.86;78.93;100439.09;5044246;28;19929;-73
2021/05/27 10:13:43;;;;;;;10.27;5.47;;;;;;;11.85;78.36;100445.38;5043478;28;20052;-72
2021/05/27 10:16:12;;;;;;;16.35;6.55;;;;;;;11.86;79.60;100447.09;5044233;28;20118;-73
2021/05/27 10:18:41;;;;;;;12.85;6.00;;;;;;;11.84;77.97;100439.19;5043854;28;20156;-73
2021/05/27 10:21:08;;;;;;;19.17;6.18;;;;;;;11.70;78.67;100449.88;5044646;28;20104;-72
2021/05/27 10:23:35;;;;;;;13.95;5.82;;;;;;;11.77;79.65;100441.38;5045078;28;20072;-69
2021/05/27 10:26:03;;;;;;;12.27;5.70;;;;;;;11.74;79.18;100438.91;5043648;28;20048;-71
2021/05/27 10:28:30;;;;;;;10.52;5.68;;;;;;;11.86;78.29;100444.44;5042017;28;20057;-70
2021/05/27 10:30:58;;;;;;;11.10;5.45;;;;;;;11.80;78.81;100443.88;5045377;28;20052;-69
2021/05/27 10:33:25;;;;;;;11.00;5.53;;;;;;;11.73;79.44;100449.69;5043454;28;20053;-73
2021/05/27 10:35:54;;;;;;;13.57;6.30;;;;;;;11.71;79.18;100435.56;5044153;28;20140;-70
2021/05/27 10:38:39;;;;;;;11.20;5.50;;;;;;;11.58;80.99;100448.81;5045331;28;20093;-73
2021/05/27 10:41:11;;;;;;;9.90;5.68;;;;;;;11.46;82.21;100440.59;5039462;28;20049;-73
2021/05/27 10:43:59;;;;;;;17.08;6.22;;;;;;;11.45;83.18;100438.00;5038760;28;20087;-72
2021/05/27 10:46:27;;;;;;;16.55;7.10;;;;;;;11.49;84.76;100435.03;5038136;28;20046;-73
2021/05/27 10:48:54;;;;;;;9.77;6.35;;;;;;;11.54;83.54;100437.44;5037839;28;20343;-73
2021/05/27 10:51:30;;;;;;;9.88;6.25;;;;;;;11.62;81.96;100443.19;5041591;28;20041;-70
2021/05/27 10:54:07;;;;;;;13.63;6.47;;;;;;;11.78;83.67;100439.56;5040733;28;20119;-73
2021/05/27 10:56:37;;;;;;;14.85;6.28;;;;;;;12.02;83.09;100439.00;5041020;28;20438;-70
2021/05/27 10:59:17;;;;;;;11.75;7.07;;;;;;;12.37;83.09;100441.31;5036672;28;20045;-70
2021/05/27 11:01:44;;;;;;;11.25;7.07;;;;;;;12.75;82.58;100435.25;5045162;28;20056;-74
2021/05/27 11:04:22;;;;;;;12.00;6.28;;;;;;;13.04;78.14;100435.13;5042435;28;20136;-70
2021/05/27 11:07:08;;;;;;;14.18;6.38;;;;;;;13.12;76.70;100441.78;5044915;28;20049;-73
2021/05/27 11:09:37;;;;;;;11.75;6.50;;;;;;;13.22;75.95;100442.03;5042960;28;20092;-74
2021/05/27 11:12:16;;;;;;;11.65;5.88;;;;;;;13.15;74.17;100437.09;5045146;28;20111;-75
2021/05/27 11:15:07;;;;;;;11.55;6.25;;;;;;;13.34;74.19;100443.88;5040025;28;20396;-71
2021/05/27 11:17:34;;;;;;;15.10;5.90;;;;;;;13.30;73.08;100428.97;5040280;28;20056;-69
2021/05/27 11:20:12;;;;;;;11.35;5.00;;;;;;;13.31;72.64;100434.22;5042731;28;20085;-72
2021/05/27 11:22:45;;;;;;;12.32;6.07;;;;;;;13.57;75.68;100430.75;5042139;28;20053;-70
2021/05/27 11:25:14;;;;;;;12.10;5.60;;;;;;;13.53;69.45;100434.59;5041075;28;20072;-74
2021/05/27 11:27:56;;;;;;;9.70;4.78;;;;;;;13.56;70.38;100440.63;5049130;28;20075;-71
2021/05/27 11:30:29;;;;;;;11.50;5.47;;;;;;;13.54;70.66;100430.97;5048842;28;20048;-69
2021/05/27 11:33:03;;;;;;;8.40;4.75;;;;;;;13.65;70.13;100427.53;5049518;28;20053;-73